Canadian Empress — VX6095 — position and weather

sailwx.info

Track history (hours):
 
Tides and Currents Weather Stations Pressure Air Temp Water Temp Dewpoint Dewpoint Depression Visibility Wind Speed Wind Dir Waves Ship Positions

Canadian Empress

Last reported at 2015-May-29 17:33 UTC. Time now 2015-May-30 18:40 UTC.
Position N 44°13' W 076°27'.

Length 30 m.

Type: Passenger vessel. MMSI: 314954012.

Date/timePositionNaut miles runAvg speedWind from/ knotsBaromVisibWave heightAir tempDewpointWater temp
2015-May-29 17:33N 44°13' W 076°27'  
2015-May-26 19:32N 45°18' W 073°56'1 1.2
2015-May-26 18:26N 45°19' W 073°55'7 7.8
2015-May-26 17:33N 45°24' W 073°48'5 0.3
2015-May-25 23:34N 45°26' W 073°42'0 0.0
2015-May-25 22:33N 45°26' W 073°42'0 0.0
2015-May-25 21:33N 45°26' W 073°42'9 8.5
2015-May-25 20:33N 45°21' W 073°52'4 4.0
2015-May-25 19:34N 45°18' W 073°56'126 2.5
2015-May-23 17:33N 44°14' W 076°28'  
Track history (hours):
 
Tides and Currents Weather Stations Pressure Air Temp Water Temp Dewpoint Dewpoint Depression Visibility Wind Speed Wind Dir Waves Ship Positions

Canadian Empress

Last reported at 2015-May-29 17:33 UTC. Time now 2015-May-30 18:40 UTC.
Position N 44°13' W 076°27'.

Length 30 m.

Type: Passenger vessel. MMSI: 314954012.

Date/timePositionNaut miles runAvg speedWind from/ knotsBaromVisibWave heightAir tempDewpointWater temp
2015-May-29 17:33N 44°13' W 076°27'  
2015-May-26 19:32N 45°18' W 073°56'1 1.2
2015-May-26 18:26N 45°19' W 073°55'7 7.8
2015-May-26 17:33N 45°24' W 073°48'5 0.3
2015-May-25 23:34N 45°26' W 073°42'0 0.0
2015-May-25 22:33N 45°26' W 073°42'0 0.0
2015-May-25 21:33N 45°26' W 073°42'9 8.5
2015-May-25 20:33N 45°21' W 073°52'4 4.0
2015-May-25 19:34N 45°18' W 073°56'126 2.5
2015-May-23 17:33N 44°14' W 076°28'  

Dump ship's entire track history